Time;durP1;ratioP1;P1;durP2;ratioP2;P2;SDS_P1;SDS_P2;PMS_P1;PMS_P2;Temp;Humidity;BMP_temperature;BMP_pressure;BME280_temperature;BME280_humidity;BME280_pressure;Samples;Min_cycle;Max_cycle;Signal;HPM_P1;HPM_P2
2021/05/20 05:00:29;;;;;;;1.50;0.73;;;10.50;98.60;;;;;;5974559;23;19936;-77
2021/05/20 05:02:56;;;;;;;1.95;0.80;;;10.50;98.60;;;;;;4955809;29;20783;-77
2021/05/20 05:05:24;;;;;;;2.05;0.70;;;10.50;98.40;;;;;;4955543;29;20093;-80
2021/05/20 05:07:51;;;;;;;2.67;0.90;;;10.50;98.40;;;;;;5040564;23;20049;-80
2021/05/20 05:10:18;;;;;;;2.90;0.90;;;10.60;98.30;;;;;;4996227;28;20133;-80
2021/05/20 05:12:44;;;;;;;3.63;1.10;;;10.60;98.30;;;;;;5013635;28;20469;-80
2021/05/20 05:15:11;;;;;;;4.07;1.05;;;10.60;98.30;;;;;;5013688;28;20136;-80
2021/05/20 05:17:39;;;;;;;2.65;0.80;;;10.70;98.30;;;;;;5013672;28;20465;-80
2021/05/20 05:20:08;;;;;;;2.30;0.85;;;10.70;98.40;;;;;;5013167;28;20077;-80
2021/05/20 05:22:34;;;;;;;4.32;1.15;;;10.70;98.50;;;;;;4996332;28;20471;-80
2021/05/20 05:25:01;;;;;;;2.63;0.85;;;10.70;98.40;;;;;;5013481;28;20081;-80
2021/05/20 05:27:28;;;;;;;3.72;1.05;;;10.80;98.40;;;;;;5013091;28;20558;-80
2021/05/20 05:29:54;;;;;;;1.45;0.77;;;10.80;98.40;;;;;;5013173;28;20137;-81
2021/05/20 05:32:21;;;;;;;1.60;0.75;;;10.90;98.30;;;;;;5013287;28;20096;-80
2021/05/20 05:34:48;;;;;;;2.92;0.90;;;10.90;98.20;;;;;;5013160;28;20045;-80
2021/05/20 05:37:15;;;;;;;2.03;0.85;;;10.90;98.10;;;;;;5013215;28;20132;-81
2021/05/20 05:39:42;;;;;;;1.52;0.70;;;10.90;98.20;;;;;;5013146;28;20132;-81
2021/05/20 05:42:10;;;;;;;1.67;0.70;;;10.90;98.00;;;;;;5013209;28;20061;-80
2021/05/20 05:44:36;;;;;;;3.13;0.70;;;11.00;98.00;;;;;;5013264;28;20061;-80
2021/05/20 05:47:03;;;;;;;1.83;0.70;;;11.00;97.60;;;;;;5013150;28;20129;-80
2021/05/20 05:49:33;;;;;;;2.13;0.80;;;11.00;97.60;;;;;;5016444;28;20112;-80
2021/05/20 05:52:06;;;;;;;2.53;1.08;;;11.10;97.50;;;;;;5017162;28;20041;-83
2021/05/20 05:54:32;;;;;;;1.83;0.80;;;11.10;97.40;;;;;;5016981;28;20057;-80
2021/05/20 05:56:59;;;;;;;2.70;0.57;;;11.10;97.70;;;;;;5016895;28;20160;-80
2021/05/20 05:59:26;;;;;;;1.55;0.65;;;11.10;97.30;;;;;;5017031;28;20137;-80
2021/05/20 06:01:52;;;;;;;2.33;0.60;;;11.20;97.20;;;;;;5017120;28;20137;-80
2021/05/20 06:04:19;;;;;;;1.95;0.60;;;11.20;97.20;;;;;;5016822;28;20129;-80
2021/05/20 06:06:46;;;;;;;1.65;0.70;;;11.20;97.10;;;;;;5016751;28;20535;-80
2021/05/20 06:09:14;;;;;;;1.50;0.60;;;11.30;97.00;;;;;;5016472;28;20132;-80
2021/05/20 06:11:43;;;;;;;1.92;0.60;;;11.30;96.90;;;;;;5016811;28;20081;-80
2021/05/20 06:14:10;;;;;;;1.13;0.60;;;11.40;96.60;;;;;;5016566;28;20050;-80
2021/05/20 06:16:40;;;;;;;1.45;0.60;;;11.40;96.50;;;;;;5016567;28;20054;-80
2021/05/20 06:19:08;;;;;;;0.85;0.43;;;11.40;96.30;;;;;;5016476;28;20052;-80
2021/05/20 06:21:35;;;;;;;1.73;0.63;;;11.40;96.30;;;;;;5016910;28;20185;-80
2021/05/20 06:24:02;;;;;;;0.95;0.50;;;11.40;96.20;;;;;;4999223;28;20073;-80
2021/05/20 06:26:30;;;;;;;2.10;0.95;;;11.40;96.10;;;;;;4998901;28;20088;-80
2021/05/20 06:28:57;;;;;;;1.50;0.50;;;11.40;96.10;;;;;;5016125;28;20137;-80
2021/05/20 06:31:24;;;;;;;1.60;0.60;;;11.40;96.10;;;;;;5016328;28;20141;-80
2021/05/20 06:33:50;;;;;;;1.08;0.50;;;11.50;96.20;;;;;;5016367;28;20129;-80
2021/05/20 06:36:18;;;;;;;1.52;0.55;;;11.60;96.00;;;;;;5016158;28;20092;-80
2021/05/20 06:38:45;;;;;;;1.67;0.60;;;11.60;95.90;;;;;;4998734;28;20049;-80
2021/05/20 06:41:11;;;;;;;1.70;0.55;;;11.60;96.10;;;;;;5016025;28;20081;-80
2021/05/20 06:43:39;;;;;;;0.68;0.47;;;11.60;95.80;;;;;;5015937;28;20184;-80
2021/05/20 06:46:06;;;;;;;1.30;0.50;;;11.60;95.80;;;;;;4998480;28;20526;-80
2021/05/20 06:48:33;;;;;;;0.95;0.50;;;11.70;95.70;;;;;;4998360;28;20093;-80
2021/05/20 06:50:59;;;;;;;2.22;0.70;;;11.70;95.60;;;;;;5015930;28;20140;-80
2021/05/20 06:53:29;;;;;;;1.85;0.65;;;11.80;95.60;;;;;;4998603;28;20470;-80
2021/05/20 06:55:59;;;;;;;1.52;0.55;;;11.80;95.60;;;;;;5015898;28;20494;-80
2021/05/20 07:01:12;;;;;;;1.52;0.60;;;11.80;95.60;;;;;;5014792;28;20104;-80
2021/05/20 07:03:39;;;;;;;1.48;0.55;;;11.80;95.70;;;;;;5015813;28;20129;-79
2021/05/20 07:06:06;;;;;;;0.95;0.50;;;11.70;95.60;;;;;;5015545;28;20054;-80
2021/05/20 07:08:32;;;;;;;1.35;0.65;;;11.70;95.80;;;;;;5015731;28;20184;-80
2021/05/20 07:10:59;;;;;;;2.72;0.70;;;11.70;95.70;;;;;;5015688;28;20137;-79
2021/05/20 07:13:26;;;;;;;1.67;0.63;;;11.70;96.00;;;;;;5015645;28;20057;-80
2021/05/20 07:15:52;;;;;;;1.35;0.40;;;11.70;96.10;;;;;;5015384;28;20125;-80
2021/05/20 07:18:20;;;;;;;0.98;0.50;;;11.60;96.40;;;;;;5015714;28;20137;-80
2021/05/20 07:20:46;;;;;;;1.88;0.68;;;11.70;96.20;;;;;;5015410;28;20132;-79
2021/05/20 07:23:15;;;;;;;0.73;0.40;;;11.70;96.10;;;;;;5015442;28;20205;-80
2021/05/20 07:25:43;;;;;;;2.35;0.50;;;11.90;96.00;;;;;;5015386;28;20081;-81
2021/05/20 07:28:11;;;;;;;1.65;0.60;;;11.90;95.90;;;;;;5015068;28;20078;-82
2021/05/20 07:30:39;;;;;;;1.05;0.50;;;12.00;95.80;;;;;;5015388;28;20467;-81
2021/05/20 07:33:06;;;;;;;1.15;0.60;;;12.10;95.30;;;;;;5015136;28;20081;-81
2021/05/20 07:35:33;;;;;;;2.45;0.70;;;12.20;95.40;;;;;;5015158;28;20060;-81
2021/05/20 07:38:00;;;;;;;1.58;0.40;;;12.30;95.00;;;;;;5015280;28;20133;-81
2021/05/20 07:40:27;;;;;;;1.45;0.60;;;12.30;95.00;;;;;;5015006;28;20107;-82
2021/05/20 07:42:54;;;;;;;1.23;0.40;;;12.40;94.30;;;;;;5014937;28;20137;-81
2021/05/20 07:45:20;;;;;;;1.45;0.50;;;12.40;94.50;;;;;;5015133;28;20080;-81
2021/05/20 07:47:48;;;;;;;1.55;0.50;;;12.40;94.40;;;;;;5014803;28;20133;-81
2021/05/20 07:50:15;;;;;;;1.50;0.60;;;12.50;94.60;;;;;;5014991;28;20081;-81
2021/05/20 07:52:43;;;;;;;0.95;0.50;;;12.70;94.40;;;;;;5014793;28;20129;-80
2021/05/20 07:55:12;;;;;;;1.50;0.60;;;12.80;93.90;;;;;;5014638;28;20483;-80
2021/05/20 07:57:39;;;;;;;1.42;0.45;;;12.80;93.80;;;;;;5014853;28;20050;-81
2021/05/20 08:00:08;;;;;;;1.55;0.60;;;12.90;93.50;;;;;;5015021;28;20431;-80
2021/05/20 08:02:42;;;;;;;2.15;0.50;;;12.90;93.50;;;;;;5014575;28;20073;-81
2021/05/20 08:05:12;;;;;;;1.38;0.47;;;13.00;93.50;;;;;;5014587;28;20049;-81
2021/05/20 08:07:48;;;;;;;1.67;0.57;;;13.10;93.40;;;;;;5014321;28;20046;-81
2021/05/20 08:10:39;;;;;;;1.10;0.50;;;13.20;93.30;;;;;;5014376;28;20487;-82
2021/05/20 08:13:06;;;;;;;1.00;0.40;;;13.20;93.00;;;;;;5014336;28;20132;-81
2021/05/20 08:15:32;;;;;;;2.15;0.70;;;13.20;93.20;;;;;;5014367;28;20129;-81
2021/05/20 08:17:59;;;;;;;1.25;0.57;;;13.30;92.60;;;;;;5014364;28;20188;-81
2021/05/20 08:20:26;;;;;;;1.77;0.70;;;13.30;92.70;;;;;;5014202;28;20144;-81
2021/05/20 08:22:53;;;;;;;0.77;0.40;;;13.30;92.50;;;;;;5014578;28;20121;-81
2021/05/20 08:25:20;;;;;;;1.13;0.45;;;13.30;92.50;;;;;;5014312;28;20116;-81
2021/05/20 08:27:47;;;;;;;1.73;0.50;;;13.40;92.50;;;;;;5014191;28;20050;-81
2021/05/20 08:30:17;;;;;;;1.40;0.35;;;13.50;92.50;;;;;;5014141;28;20132;-81
2021/05/20 08:32:45;;;;;;;0.98;0.40;;;13.60;92.30;;;;;;5013981;28;20141;-81
2021/05/20 08:35:13;;;;;;;1.95;0.50;;;13.80;91.80;;;;;;5013955;28;20081;-81
2021/05/20 08:37:40;;;;;;;1.33;0.60;;;13.90;91.50;;;;;;5014121;28;20121;-81
2021/05/20 08:40:09;;;;;;;2.00;0.57;;;14.00;91.00;;;;;;5014077;28;20096;-82
2021/05/20 08:42:37;;;;;;;1.15;0.40;;;14.00;90.10;;;;;;5013897;28;20042;-81
2021/05/20 08:45:16;;;;;;;2.22;0.40;;;14.00;90.20;;;;;;5013939;28;20128;-81
2021/05/20 08:47:43;;;;;;;0.57;0.30;;;13.70;90.70;;;;;;5013801;28;20046;-81
2021/05/20 08:50:11;;;;;;;0.70;0.20;;;13.30;92.00;;;;;;5013818;28;20137;-81
2021/05/20 08:52:39;;;;;;;0.65;0.30;;;12.80;92.80;;;;;;5013827;28;20447;-81
2021/05/20 08:55:08;;;;;;;0.73;0.30;;;12.50;93.60;;;;;;4996576;28;20093;-81
2021/05/20 08:57:36;;;;;;;1.02;0.30;;;12.20;94.30;;;;;;5013757;28;20092;-82
2021/05/20 09:00:07;;;;;;;1.00;0.35;;;12.00;95.60;;;;;;5013646;28;20436;-81
2021/05/20 09:02:34;;;;;;;0.50;0.20;;;11.90;96.00;;;;;;5013768;28;20053;-81
2021/05/20 09:05:07;;;;;;;0.85;0.40;;;11.80;96.70;;;;;;5013716;28;20169;-82
2021/05/20 09:07:36;;;;;;;0.90;0.28;;;11.80;97.00;;;;;;5013240;28;20537;-81
2021/05/20 09:10:19;;;;;;;2.08;0.43;;;11.80;97.10;;;;;;5013514;28;20048;-82
2021/05/20 09:12:49;;;;;;;0.70;0.30;;;11.90;97.20;;;;;;5013665;28;20076;-81
2021/05/20 09:15:23;;;;;;;0.85;0.25;;;12.00;97.30;;;;;;5013602;28;20121;-82
2021/05/20 09:17:50;;;;;;;0.35;0.22;;;12.00;97.40;;;;;;5013510;28;20050;-82
2021/05/20 09:20:19;;;;;;;1.10;0.40;;;12.10;97.30;;;;;;5013487;28;20050;-81
2021/05/20 09:22:50;;;;;;;0.82;0.32;;;12.30;97.40;;;;;;5012823;28;20054;-82
2021/05/20 09:25:16;;;;;;;0.63;0.30;;;12.50;97.40;;;;;;5013323;28;20081;-81
2021/05/20 09:27:45;;;;;;;0.77;0.20;;;12.60;97.40;;;;;;5013346;28;20046;-82
2021/05/20 09:30:21;;;;;;;1.23;0.40;;;12.80;97.60;;;;;;5013316;28;20057;-81
2021/05/20 09:32:52;;;;;;;2.47;0.60;;;13.00;97.70;;;;;;5013606;28;20077;-81
2021/05/20 09:35:22;;;;;;;1.67;0.45;;;13.10;97.50;;;;;;5013222;28;20056;-81
2021/05/20 09:37:53;;;;;;;0.95;0.40;;;13.30;97.50;;;;;;5013335;28;20054;-81
2021/05/20 09:40:23;;;;;;;0.80;0.30;;;13.50;97.50;;;;;;5013277;28;20052;-81
2021/05/20 09:42:50;;;;;;;1.77;0.50;;;13.60;97.70;;;;;;5013065;28;20510;-81
2021/05/20 09:45:22;;;;;;;0.68;0.40;;;13.60;97.40;;;;;;5013010;28;20495;-81
2021/05/20 09:47:49;;;;;;;1.08;0.50;;;13.70;97.50;;;;;;5012926;28;20503;-81
2021/05/20 09:50:18;;;;;;;1.05;0.40;;;13.90;97.60;;;;;;5013285;28;20407;-82
2021/05/20 09:52:46;;;;;;;1.40;0.50;;;13.90;97.80;;;;;;5012978;28;20041;-81
2021/05/20 09:55:25;;;;;;;1.67;0.63;;;14.10;97.80;;;;;;4995651;28;20125;-82
2021/05/20 09:57:54;;;;;;;1.38;0.55;;;14.10;97.80;;;;;;5013033;28;20145;-81
2021/05/20 10:00:24;;;;;;;2.10;0.57;;;14.30;97.90;;;;;;5012844;28;20106;-80
2021/05/20 10:03:01;;;;;;;1.27;0.50;;;14.40;97.50;;;;;;5013164;28;20085;-81
2021/05/20 10:05:31;;;;;;;1.23;0.60;;;14.50;97.40;;;;;;5013083;28;20125;-82
2021/05/20 10:08:01;;;;;;;1.73;0.60;;;14.60;97.40;;;;;;5012750;28;20145;-81
2021/05/20 10:10:28;;;;;;;1.42;0.70;;;14.70;97.30;;;;;;5012803;28;20143;-81
2021/05/20 10:12:55;;;;;;;1.15;0.57;;;14.80;97.00;;;;;;5012927;28;20046;-80
2021/05/20 10:15:24;;;;;;;1.52;0.50;;;14.90;97.10;;;;;;5012528;28;20411;-81
2021/05/20 10:17:52;;;;;;;1.02;0.50;;;14.90;97.00;;;;;;5012881;28;20046;-81
2021/05/20 10:20:22;;;;;;;1.10;0.60;;;15.00;97.00;;;;;;5012779;28;20088;-81
2021/05/20 10:22:49;;;;;;;0.95;0.50;;;15.10;96.60;;;;;;5012769;28;20074;-80
2021/05/20 10:25:17;;;;;;;1.02;0.50;;;15.20;96.90;;;;;;5012672;28;20085;-81
2021/05/20 10:27:45;;;;;;;1.48;0.50;;;15.20;97.00;;;;;;5012861;28;20050;-81
2021/05/20 10:30:14;;;;;;;1.38;0.50;;;15.30;97.10;;;;;;5012680;28;20049;-80
2021/05/20 10:32:44;;;;;;;0.85;0.40;;;15.40;97.20;;;;;;5012686;28;20077;-81
2021/05/20 10:35:13;;;;;;;1.67;0.50;;;15.50;97.10;;;;;;5015186;28;20092;-81
2021/05/20 10:37:42;;;;;;;1.55;0.35;;;15.60;96.40;;;;;;5016103;28;20084;-80
2021/05/20 10:40:14;;;;;;;1.48;0.50;;;15.70;95.60;;;;;;5016324;28;20149;-80
2021/05/20 10:42:43;;;;;;;1.13;0.50;;;15.80;94.90;;;;;;5015635;28;20556;-79
2021/05/20 10:45:18;;;;;;;1.60;0.35;;;16.00;94.40;;;;;;5016218;28;20132;-80
2021/05/20 10:48:21;;;;;;;0.50;0.30;;;16.00;94.20;;;;;;5016024;28;20077;-81
2021/05/20 10:51:18;;;;;;;0.63;0.30;;;16.00;93.50;;;;;;5016002;28;20495;-80
2021/05/20 10:54:07;;;;;;;1.98;0.90;;;16.00;91.50;;;;;;5015831;28;20487;-80
2021/05/20 10:56:57;;;;;;;2.70;1.13;;;16.00;91.30;;;;;;5015877;28;20088;-81
2021/05/20 10:59:44;;;;;;;3.42;1.35;;;16.00;91.50;;;;;;5016008;28;20050;-80
2021/05/20 11:02:47;;;;;;;1.45;0.60;;;16.00;91.50;;;;;;5015603;28;20054;-80
2021/05/20 11:06:00;;;;;;;0.90;0.30;;;16.10;90.70;;;;;;5015619;28;20549;-80
2021/05/20 11:08:59;;;;;;;1.02;0.47;;;16.00;90.10;;;;;;5015713;28;20129;-80
2021/05/20 11:11:49;;;;;;;0.93;0.50;;;16.10;87.40;;;;;;5015852;28;20052;-80
2021/05/20 11:14:40;;;;;;;0.30;0.10;;;16.10;85.60;;;;;;5015797;28;20057;-80
2021/05/20 11:17:38;;;;;;;2.83;0.60;;;16.10;84.70;;;;;;5015431;28;20085;-80
2021/05/20 11:20:45;;;;;;;0.57;0.30;;;16.20;84.20;;;;;;5015732;28;20057;-80
2021/05/20 11:23:28;;;;;;;0.82;0.35;;;16.20;82.60;;;;;;5015200;28;20156;-81
2021/05/20 11:26:16;;;;;;;1.27;0.50;;;16.30;81.20;;;;;;5015355;28;20041;-80
2021/05/20 11:29:08;;;;;;;1.30;0.47;;;16.20;78.50;;;;;;5015167;28;20351;-81
2021/05/20 11:31:36;;;;;;;1.45;0.30;;;16.20;77.90;;;;;;5014958;28;20046;-80
2021/05/20 11:34:24;;;;;;;1.17;0.40;;;16.20;77.10;;;;;;5015220;28;20054;-80
2021/05/20 11:36:52;;;;;;;1.35;0.40;;;16.10;79.60;;;;;;5015110;28;20046;-81
2021/05/20 11:39:21;;;;;;;0.85;0.35;;;16.10;83.00;;;;;;5015114;28;20050;-81
2021/05/20 11:41:49;;;;;;;1.95;0.52;;;16.10;83.20;;;;;;5015159;28;20548;-81
2021/05/20 11:44:18;;;;;;;0.75;0.32;;;16.10;85.60;;;;;;5014959;28;20046;-80
2021/05/20 11:46:48;;;;;;;0.95;0.50;;;16.20;85.70;;;;;;5014289;28;20104;-81
2021/05/20 11:49:19;;;;;;;0.30;0.20;;;16.20;86.40;;;;;;5015046;28;20086;-81
2021/05/20 11:51:53;;;;;;;0.35;0.30;;;16.30;86.90;;;;;;5015107;28;20045;-81
2021/05/20 11:54:24;;;;;;;1.13;0.30;;;16.40;88.90;;;;;;5014899;28;20502;-81
2021/05/20 11:56:53;;;;;;;0.95;0.40;;;16.40;89.50;;;;;;5014784;28;20133;-81
2021/05/20 11:59:51;;;;;;;2.05;0.57;;;16.40;89.70;;;;;;5014859;28;20069;-81
2021/05/20 12:02:21;;;;;;;1.05;0.40;;;16.60;88.00;;;;;;5009049;28;20499;-81
2021/05/20 12:04:49;;;;;;;1.38;0.40;;;16.80;83.40;;;;;;5014747;28;20057;-81
2021/05/20 12:07:22;;;;;;;1.40;0.50;;;16.90;84.50;;;;;;5014375;28;20578;-80
2021/05/20 12:09:49;;;;;;;0.70;0.30;;;17.00;83.90;;;;;;5014368;28;20499;-81
2021/05/20 12:12:19;;;;;;;0.77;0.40;;;17.00;82.00;;;;;;5014662;28;20089;-81
2021/05/20 12:14:46;;;;;;;0.80;0.30;;;17.00;78.10;;;;;;5014564;28;20125;-81
2021/05/20 12:17:16;;;;;;;0.80;0.30;;;17.10;75.50;;;;;;5014357;28;20132;-81
2021/05/20 12:19:46;;;;;;;1.10;0.40;;;17.10;75.70;;;;;;5014417;28;20096;-81
2021/05/20 12:22:20;;;;;;;2.35;0.50;;;17.10;76.40;;;;;;5014260;28;20053;-81
2021/05/20 12:24:49;;;;;;;0.57;0.32;;;17.10;75.80;;;;;;5014429;28;20100;-81
2021/05/20 12:27:25;;;;;;;0.70;0.40;;;17.10;75.70;;;;;;5014246;28;20141;-81
2021/05/20 12:29:55;;;;;;;3.20;0.43;;;17.10;74.30;;;;;;5014148;28;20522;-82
2021/05/20 12:32:35;;;;;;;1.30;0.50;;;17.10;74.90;;;;;;5014112;28;20101;-81
2021/05/20 12:35:20;;;;;;;0.80;0.30;;;17.10;75.40;;;;;;5014364;28;20137;-81
2021/05/20 12:37:59;;;;;;;1.13;0.40;;;17.10;73.50;;;;;;5014019;28;20495;-81
2021/05/20 12:40:29;;;;;;;0.85;0.40;;;17.10;74.70;;;;;;5014106;28;20045;-82
2021/05/20 12:43:12;;;;;;;1.80;0.63;;;17.10;74.80;;;;;;5014071;28;20053;-82
2021/05/20 12:45:41;;;;;;;0.70;0.40;;;17.20;73.90;;;;;;5013822;28;20050;-81
2021/05/20 12:48:30;;;;;;;1.02;0.40;;;17.20;72.40;;;;;;5013999;28;20615;-81
2021/05/20 12:51:00;;;;;;;0.85;0.40;;;17.30;71.10;;;;;;5013965;28;20136;-81
2021/05/20 12:53:38;;;;;;;0.80;0.40;;;17.20;72.20;;;;;;5013695;28;20063;-81
2021/05/20 12:56:26;;;;;;;0.88;0.43;;;17.20;70.00;;;;;;5013792;28;20046;-81
2021/05/20 12:58:55;;;;;;;0.65;0.40;;;17.10;70.10;;;;;;5012961;28;20080;-82
2021/05/20 13:01:23;;;;;;;1.08;0.47;;;17.20;70.90;;;;;;5013674;28;20041;-82
2021/05/20 13:03:52;;;;;;;0.70;0.32;;;17.20;69.90;;;;;;5013632;28;20475;-81
2021/05/20 13:06:24;;;;;;;1.05;0.60;;;17.30;69.60;;;;;;5013568;28;20467;-81
2021/05/20 13:08:51;;;;;;;3.25;1.10;;;17.40;70.70;;;;;;5013336;28;20149;-81
2021/05/20 13:11:23;;;;;;;3.45;1.40;;;17.50;68.60;;;;;;5013567;28;20049;-81
2021/05/20 13:13:52;;;;;;;1.35;0.52;;;17.60;67.50;;;;;;5013537;28;20048;-81
2021/05/20 13:16:27;;;;;;;1.63;0.60;;;17.60;65.00;;;;;;5013601;28;20042;-81
2021/05/20 13:22:21;;;;;;;0.80;0.47;;;17.70;64.30;;;;;;5013321;28;20050;-81
2021/05/20 13:24:51;;;;;;;2.10;0.50;;;17.90;64.70;;;;;;5013562;28;20391;-81
2021/05/20 13:27:20;;;;;;;0.77;0.40;;;18.10;63.10;;;;;;5013271;28;20480;-81
2021/05/20 13:29:50;;;;;;;0.90;0.50;;;18.20;61.40;;;;;;5013187;28;20463;-81
2021/05/20 13:32:24;;;;;;;1.65;0.30;;;18.40;61.80;;;;;;5013276;28;20041;-81
2021/05/20 13:34:51;;;;;;;0.75;0.40;;;18.40;62.40;;;;;;5013298;28;20112;-81
2021/05/20 13:37:17;;;;;;;1.75;0.75;;;18.60;61.70;;;;;;5013510;28;20089;-82
2021/05/20 13:39:45;;;;;;;1.38;0.50;;;18.60;59.90;;;;;;5013374;28;20049;-81
2021/05/20 13:42:12;;;;;;;0.98;0.40;;;18.50;61.80;;;;;;4995826;28;20049;-81
2021/05/20 13:44:46;;;;;;;1.20;0.50;;;18.40;59.80;;;;;;5013113;28;20551;-81
2021/05/20 13:47:13;;;;;;;1.65;0.40;;;18.50;60.10;;;;;;5013179;28;20046;-81
2021/05/20 13:49:43;;;;;;;0.52;0.30;;;18.40;57.10;;;;;;5013042;28;20145;-81
2021/05/20 13:52:15;;;;;;;2.15;0.40;;;18.20;58.20;;;;;;5013156;28;20053;-81
2021/05/20 13:54:43;;;;;;;0.98;0.40;;;18.10;57.80;;;;;;5013039;28;20057;-81
2021/05/20 13:57:10;;;;;;;1.02;0.32;;;18.10;58.30;;;;;;5013011;28;20046;-81
2021/05/20 13:59:38;;;;;;;4.72;2.38;;;18.20;58.40;;;;;;5012835;28;20128;-81
2021/05/20 14:02:08;;;;;;;5.00;2.50;;;18.20;56.80;;;;;;5012797;28;20046;-81
2021/05/20 14:04:37;;;;;;;1.92;0.63;;;18.20;58.40;;;;;;5013101;28;20407;-81
2021/05/20 14:07:05;;;;;;;0.60;0.30;;;18.30;57.20;;;;;;5012937;28;20089;-81
2021/05/20 14:09:31;;;;;;;0.73;0.30;;;18.40;56.60;;;;;;5014614;28;20058;-81
2021/05/20 14:12:00;;;;;;;0.77;0.30;;;18.60;57.80;;;;;;5016675;28;20625;-81
2021/05/20 14:14:27;;;;;;;0.30;0.20;;;18.80;55.70;;;;;;5016588;28;20124;-81
2021/05/20 14:16:54;;;;;;;0.55;0.20;;;19.00;55.10;;;;;;5016914;28;20116;-81
2021/05/20 14:19:22;;;;;;;1.17;0.20;;;19.30;54.80;;;;;;5016882;28;20586;-81
2021/05/20 14:21:48;;;;;;;0.75;0.28;;;19.70;52.60;;;;;;5016581;28;20411;-81
2021/05/20 14:24:16;;;;;;;0.60;0.28;;;20.00;51.10;;;;;;5016347;28;20442;-81
2021/05/20 14:26:43;;;;;;;0.77;0.30;;;20.30;50.70;;;;;;5016607;28;20131;-81
2021/05/20 14:29:10;;;;;;;0.30;0.20;;;20.20;50.00;;;;;;5016300;28;20553;-81
2021/05/20 14:31:36;;;;;;;0.80;0.52;;;19.90;51.00;;;;;;5016595;28;20085;-81
2021/05/20 14:34:03;;;;;;;0.85;0.28;;;19.70;52.00;;;;;;5016312;28;20073;-81
2021/05/20 14:36:31;;;;;;;0.40;0.20;;;19.50;52.30;;;;;;5016287;28;20128;-81
2021/05/20 14:38:58;;;;;;;0.70;0.22;;;19.30;52.70;;;;;;5016140;28;20057;-80
2021/05/20 14:41:24;;;;;;;0.50;0.32;;;19.20;51.70;;;;;;5016106;28;20446;-81
2021/05/20 14:43:51;;;;;;;1.08;0.32;;;19.00;52.70;;;;;;5016299;28;20130;-80
2021/05/20 14:46:18;;;;;;;0.52;0.30;;;18.90;52.90;;;;;;5016059;28;20547;-80
2021/05/20 14:48:44;;;;;;;0.85;0.20;;;19.00;53.00;;;;;;5016238;28;20053;-80
2021/05/20 14:51:14;;;;;;;0.65;0.20;;;18.90;55.00;;;;;;5016179;28;20077;-80
2021/05/20 14:53:48;;;;;;;0.98;0.20;;;19.20;55.60;;;;;;5015896;28;20042;-80
2021/05/20 14:56:20;;;;;;;0.60;0.30;;;19.60;56.50;;;;;;5016334;28;20074;-81
2021/05/20 15:07:03;;;;;;;1.15;0.30;;;20.60;47.50;;;;;;5015870;28;20061;-81
2021/05/20 15:09:38;;;;;;;0.52;0.28;;;20.80;49.20;;;;;;5012313;28;20077;-82
2021/05/20 15:12:09;;;;;;;0.30;0.20;;;21.10;48.20;;;;;;5012924;28;20053;-81
2021/05/20 15:14:39;;;;;;;0.68;0.30;;;21.10;48.10;;;;;;5011748;28;20491;-82
2021/05/20 15:17:08;;;;;;;0.65;0.30;;;21.10;47.30;;;;;;5012224;28;20483;-84
2021/05/20 15:19:34;;;;;;;1.48;0.45;;;21.10;48.40;;;;;;5012783;28;20089;-79
2021/05/20 15:22:01;;;;;;;0.57;0.40;;;21.20;49.40;;;;;;5012208;28;20479;-81
2021/05/20 15:24:28;;;;;;;0.75;0.40;;;21.40;49.60;;;;;;5012447;28;20049;-84
2021/05/20 15:26:55;;;;;;;4.97;2.80;;;21.60;50.20;;;;;;5012750;28;20136;-83
2021/05/20 15:29:23;;;;;;;1.58;0.70;;;21.60;48.30;;;;;;5012649;28;20049;-83
2021/05/20 15:31:50;;;;;;;0.90;0.40;;;21.50;49.20;;;;;;5012637;28;20058;-81
2021/05/20 15:34:17;;;;;;;1.17;0.50;;;21.30;49.20;;;;;;5011968;28;20053;-82
2021/05/20 15:36:47;;;;;;;0.82;0.40;;;21.20;49.80;;;;;;5012104;28;20140;-82
2021/05/20 15:39:13;;;;;;;1.77;0.50;;;21.10;50.40;;;;;;5011667;28;20131;-82
2021/05/20 15:41:41;;;;;;;0.63;0.30;;;21.40;48.70;;;;;;5011757;28;20563;-81
2021/05/20 15:44:10;;;;;;;0.70;0.40;;;21.40;48.70;;;;;;5012164;28;20057;-82
2021/05/20 15:46:40;;;;;;;0.45;0.40;;;21.40;47.60;;;;;;5010752;28;20129;-79
2021/05/20 15:51:53;;;;;;;1.10;0.38;;;21.00;47.80;;;;;;5014912;28;20093;-80
2021/05/20 15:54:20;;;;;;;0.68;0.40;;;20.70;47.50;;;;;;5014757;28;20084;-79
2021/05/20 15:56:47;;;;;;;0.60;0.40;;;20.60;48.20;;;;;;5014192;28;20092;-79
2021/05/20 15:59:14;;;;;;;3.45;0.50;;;20.50;48.50;;;;;;5014331;28;20081;-79
2021/05/20 16:01:41;;;;;;;1.13;0.40;;;20.30;48.80;;;;;;5014805;28;20133;-79
2021/05/20 16:04:10;;;;;;;1.40;0.50;;;20.30;48.90;;;;;;5012217;28;20128;-80
2021/05/20 16:06:41;;;;;;;1.48;0.50;;;20.20;49.70;;;;;;5014151;28;20054;-79
2021/05/20 16:09:10;;;;;;;1.08;0.45;;;20.10;49.30;;;;;;5014213;28;20056;-79
2021/05/20 16:11:42;;;;;;;0.93;0.60;;;20.00;50.00;;;;;;5014545;28;20410;-79
2021/05/20 16:14:17;;;;;;;1.05;0.50;;;20.00;50.00;;;;;;4993461;28;20046;-79
2021/05/20 16:16:45;;;;;;;1.95;0.50;;;19.90;49.70;;;;;;5012453;28;20042;-79
2021/05/20 16:19:11;;;;;;;1.08;0.50;;;19.80;49.00;;;;;;5009899;28;20555;-79
2021/05/20 16:21:38;;;;;;;0.85;0.40;;;19.60;48.90;;;;;;4994723;28;20092;-79
2021/05/20 16:37:47;;;;;;;1.40;0.50;;;19.20;51.20;;;;;;5014154;28;20061;-80
2021/05/20 16:40:14;;;;;;;2.35;0.50;;;19.20;52.50;;;;;;5013345;28;20463;-79
2021/05/20 16:42:42;;;;;;;0.93;0.38;;;19.30;53.10;;;;;;5012423;28;20041;-79
2021/05/20 16:45:11;;;;;;;1.83;0.60;;;19.30;52.60;;;;;;5011419;28;20057;-80
2021/05/20 16:47:38;;;;;;;1.52;0.60;;;19.30;51.80;;;;;;5010252;28;20189;-80
2021/05/20 16:50:07;;;;;;;1.02;0.50;;;19.20;51.40;;;;;;5028165;28;20140;-82
2021/05/20 16:52:35;;;;;;;0.85;0.40;;;19.20;51.60;;;;;;4999413;28;20077;-82
2021/05/20 16:55:08;;;;;;;1.48;0.60;;;19.10;52.70;;;;;;4977389;28;20411;-80
2021/05/20 16:57:41;;;;;;;1.70;0.70;;;19.10;52.60;;;;;;5006600;28;20388;-80
2021/05/20 17:00:09;;;;;;;2.22;0.70;;;19.00;52.50;;;;;;5013748;28;20565;-79
2021/05/20 17:02:36;;;;;;;0.93;0.40;;;18.90;51.90;;;;;;5013725;28;20133;-78
2021/05/20 17:05:05;;;;;;;1.20;0.43;;;18.70;51.80;;;;;;5013587;28;20080;-77
2021/05/20 17:07:32;;;;;;;1.48;0.50;;;18.60;51.70;;;;;;5012655;28;20088;-81
2021/05/20 17:09:58;;;;;;;1.52;0.40;;;18.40;51.90;;;;;;4995889;28;20516;-80
2021/05/20 17:12:25;;;;;;;1.85;0.40;;;18.30;52.90;;;;;;5013341;28;20096;-79
2021/05/20 17:14:52;;;;;;;1.58;0.50;;;18.20;52.60;;;;;;5013654;28;20084;-80
2021/05/20 17:17:19;;;;;;;1.00;0.40;;;18.00;52.60;;;;;;5006322;28;20129;-80
2021/05/20 17:19:45;;;;;;;0.90;0.40;;;17.80;52.70;;;;;;5012954;28;20141;-81
2021/05/20 17:22:13;;;;;;;2.03;0.82;;;17.70;53.80;;;;;;5013278;28;20081;-79
2021/05/20 17:24:39;;;;;;;1.75;0.45;;;17.60;54.50;;;;;;5005547;28;20129;-80
2021/05/20 17:27:07;;;;;;;0.60;0.32;;;17.50;54.90;;;;;;4998819;28;20380;-79
2021/05/20 17:29:34;;;;;;;2.17;0.88;;;17.40;55.20;;;;;;5012983;28;20054;-81
2021/05/20 17:32:01;;;;;;;0.98;0.43;;;17.30;55.90;;;;;;5012967;28;20133;-80
2021/05/20 17:34:27;;;;;;;1.02;0.40;;;17.20;56.30;;;;;;5012870;28;20444;-79
2021/05/20 17:36:54;;;;;;;1.45;0.60;;;17.10;56.90;;;;;;5012670;28;20133;-80
2021/05/20 17:39:21;;;;;;;1.48;0.50;;;17.10;56.90;;;;;;5013109;28;20061;-79
2021/05/20 17:41:48;;;;;;;0.68;0.38;;;17.10;57.40;;;;;;5012401;28;20204;-79
2021/05/20 17:44:15;;;;;;;7.88;3.95;;;17.00;57.60;;;;;;5014433;28;20045;-80
2021/05/20 17:46:42;;;;;;;13.07;6.80;;;17.00;58.10;;;;;;5016848;28;20129;-79
2021/05/20 17:49:09;;;;;;;3.00;1.30;;;17.00;57.30;;;;;;5013598;28;20056;-80
2021/05/20 17:51:35;;;;;;;1.38;0.60;;;16.90;57.90;;;;;;5013918;28;20038;-80
2021/05/20 17:54:03;;;;;;;1.45;0.57;;;16.90;58.20;;;;;;5008085;28;20081;-81
2021/05/20 17:56:32;;;;;;;0.65;0.40;;;16.80;58.80;;;;;;5010502;28;20112;-80
2021/05/20 17:58:59;;;;;;;1.27;0.50;;;16.70;58.70;;;;;;5016245;28;20064;-80
2021/05/20 18:01:25;;;;;;;1.23;0.50;;;16.70;58.80;;;;;;5016998;28;20050;-80
2021/05/20 18:03:52;;;;;;;1.23;0.50;;;16.70;58.80;;;;;;5017611;28;20135;-80
2021/05/20 18:06:19;;;;;;;0.98;0.45;;;16.70;59.20;;;;;;5030859;28;20112;-79
2021/05/20 18:08:48;;;;;;;1.88;0.60;;;16.60;59.30;;;;;;5025178;28;20555;-81
2021/05/20 18:14:01;;;;;;;1.98;0.63;;;16.50;60.70;;;;;;5016083;28;20053;-80
2021/05/20 18:16:31;;;;;;;1.75;0.60;;;16.60;60.80;;;;;;5016799;28;20144;-80
2021/05/20 18:19:08;;;;;;;4.55;1.50;;;16.50;61.20;;;;;;5016029;28;20056;-81
2021/05/20 18:24:25;;;;;;;1.75;0.60;;;16.40;61.70;;;;;;5010044;28;20399;-80
2021/05/20 18:26:51;;;;;;;1.42;0.50;;;16.30;62.30;;;;;;5012982;28;20057;-79
2021/05/20 18:29:21;;;;;;;1.67;0.52;;;16.30;62.30;;;;;;5016451;28;20141;-80
2021/05/20 18:31:52;;;;;;;2.03;0.80;;;16.30;62.60;;;;;;5016101;28;20061;-80
2021/05/20 18:34:19;;;;;;;1.60;0.60;;;16.20;62.60;;;;;;5016340;28;20058;-81
2021/05/20 18:36:46;;;;;;;1.23;0.60;;;16.20;63.00;;;;;;5015733;28;20058;-83
2021/05/20 18:39:18;;;;;;;1.80;0.60;;;16.20;63.00;;;;;;4999021;28;20566;-81